createdAt,value
2023-11-09T00:01:50.286Z,16.76
2023-11-09T00:04:37.927Z,16.92
2023-11-09T00:07:25.343Z,16.98
2023-11-09T00:10:13.834Z,17.29
2023-11-09T00:13:00.449Z,18.28
2023-11-09T00:15:47.000Z,17.97
2023-11-09T00:18:34.598Z,17.45
2023-11-09T00:21:20.966Z,17.94
2023-11-09T00:24:12.029Z,17.14
2023-11-09T00:27:00.273Z,17.34
2023-11-09T00:29:46.647Z,17.32
2023-11-09T00:32:33.010Z,18.39
2023-11-09T00:35:21.429Z,17.83
2023-11-09T00:38:10.080Z,17.77
2023-11-09T00:40:56.476Z,17.40
2023-11-09T00:43:42.694Z,18.56
2023-11-09T00:46:29.262Z,17.45
2023-11-09T00:49:17.119Z,17.88
2023-11-09T00:52:05.463Z,17.43
2023-11-09T00:54:52.573Z,18.52
2023-11-09T00:57:39.030Z,18.03
2023-11-09T01:00:25.568Z,17.63
2023-11-09T01:03:12.363Z,18.34
2023-11-09T01:06:01.573Z,18.05
2023-11-09T01:08:49.843Z,18.35
2023-11-09T01:11:36.228Z,18.28
2023-11-09T01:14:22.799Z,17.58
2023-11-09T01:17:09.260Z,16.91
2023-11-09T01:19:55.707Z,17.35
2023-11-09T01:22:42.460Z,18.79
2023-11-09T01:25:30.728Z,17.88
2023-11-09T01:28:17.099Z,17.87
2023-11-09T01:31:04.294Z,17.79
2023-11-09T01:33:50.658Z,18.52
2023-11-09T01:36:38.690Z,17.91
2023-11-09T01:39:25.359Z,17.72
2023-11-09T01:42:14.439Z,18.85
2023-11-09T01:45:00.894Z,17.02
2023-11-09T01:47:47.531Z,17.88
2023-11-09T01:50:35.093Z,17.98
2023-11-09T01:53:21.715Z,18.16
2023-11-09T01:56:10.445Z,17.97
2023-11-09T01:58:58.745Z,17.67
2023-11-09T02:01:48.830Z,19.20
2023-11-09T02:04:36.705Z,18.54
2023-11-09T02:07:23.529Z,17.58
2023-11-09T02:10:12.754Z,17.91
2023-11-09T02:13:00.097Z,19.03
2023-11-09T02:15:48.225Z,18.00
2023-11-09T02:18:35.333Z,18.53
2023-11-09T02:21:22.787Z,18.26
2023-11-09T02:24:13.628Z,18.69
2023-11-09T02:27:02.533Z,18.98
2023-11-09T02:29:49.080Z,17.70
2023-11-09T02:32:35.577Z,18.30
2023-11-09T02:35:22.249Z,18.46
2023-11-09T02:38:09.969Z,18.78
2023-11-09T02:40:58.024Z,18.18
2023-11-09T02:43:44.504Z,18.04
2023-11-09T02:46:31.497Z,17.84
2023-11-09T02:49:18.209Z,17.80
2023-11-09T02:52:06.884Z,17.82
2023-11-09T02:54:53.453Z,18.91
2023-11-09T02:57:41.651Z,18.98
2023-11-09T03:00:27.940Z,18.68
2023-11-09T03:03:14.566Z,17.86
2023-11-09T03:06:00.997Z,17.76
2023-11-09T03:08:47.391Z,18.97
2023-11-09T03:11:34.021Z,19.75
2023-11-09T03:14:21.785Z,19.07
2023-11-09T03:17:10.494Z,19.62
2023-11-09T03:19:59.127Z,18.33
2023-11-09T03:22:46.834Z,18.88
2023-11-09T03:25:33.275Z,20.22
2023-11-09T03:28:19.741Z,19.34
2023-11-09T03:31:08.299Z,19.56
2023-11-09T03:33:54.706Z,19.31
2023-11-09T03:36:41.116Z,20.28
2023-11-09T03:39:27.404Z,19.77
2023-11-09T03:42:15.781Z,20.97
2023-11-09T03:45:02.565Z,19.47
2023-11-09T03:47:51.358Z,20.44
2023-11-09T03:50:37.526Z,20.23
2023-11-09T03:53:23.908Z,20.87
2023-11-09T03:56:11.000Z,20.08
2023-11-09T03:58:57.796Z,19.37
2023-11-09T04:01:44.363Z,19.69
2023-11-09T04:04:32.229Z,19.88
2023-11-09T04:07:18.688Z,19.60
2023-11-09T04:10:07.266Z,19.14
2023-11-09T04:12:53.861Z,19.56
2023-11-09T04:15:41.571Z,19.41
2023-11-09T04:18:28.076Z,20.14
2023-11-09T04:21:15.851Z,19.59
2023-11-09T04:24:02.201Z,19.77
2023-11-09T04:26:48.635Z,19.10
2023-11-09T04:29:35.136Z,19.90
2023-11-09T04:32:21.585Z,19.00
2023-11-09T04:35:09.479Z,19.43
2023-11-09T04:37:57.349Z,18.27
2023-11-09T04:40:44.955Z,18.70
2023-11-09T04:43:31.298Z,19.90
2023-11-09T04:46:19.863Z,18.12
2023-11-09T04:49:08.465Z,16.38
2023-11-09T04:51:56.343Z,18.06
2023-11-09T04:54:47.276Z,18.83
2023-11-09T04:57:51.177Z,18.35
2023-11-09T05:00:55.548Z,17.66
2023-11-09T05:03:59.727Z,17.40
2023-11-09T05:06:54.144Z,18.24
2023-11-09T05:09:40.997Z,18.42
2023-11-09T05:12:29.242Z,17.11
2023-11-09T05:15:16.045Z,17.80
2023-11-09T05:18:03.683Z,17.37
2023-11-09T05:20:50.509Z,18.19
2023-11-09T05:23:36.845Z,18.46
2023-11-09T05:26:26.755Z,17.85
2023-11-09T05:29:14.404Z,19.09
2023-11-09T05:32:00.902Z,19.21
2023-11-09T05:34:47.523Z,18.21
2023-11-09T05:37:34.050Z,17.97
2023-11-09T05:40:22.040Z,18.23
2023-11-09T05:43:11.053Z,18.96
2023-11-09T05:45:59.165Z,17.48
2023-11-09T05:48:45.244Z,17.37
2023-11-09T05:51:32.450Z,17.57
2023-11-09T05:54:19.459Z,17.12
2023-11-09T05:57:05.774Z,17.01
2023-11-09T05:59:52.574Z,16.48
2023-11-09T06:02:40.460Z,16.68
2023-11-09T06:05:26.732Z,18.15
2023-11-09T06:08:13.690Z,18.21
2023-11-09T06:10:59.839Z,18.11
2023-11-09T06:13:46.078Z,18.65
2023-11-09T06:16:32.706Z,18.85
2023-11-09T06:19:20.756Z,17.89
2023-11-09T06:22:08.938Z,18.42
2023-11-09T06:24:55.469Z,18.16
2023-11-09T06:27:42.381Z,18.38
2023-11-09T06:30:29.082Z,17.99
2023-11-09T06:33:15.232Z,18.33
2023-11-09T06:36:03.265Z,18.94
2023-11-09T06:38:49.775Z,18.29
2023-11-09T06:41:38.448Z,17.57
2023-11-09T06:44:25.331Z,17.97
2023-11-09T06:47:11.977Z,18.40
2023-11-09T06:49:59.706Z,18.21
2023-11-09T06:52:48.060Z,18.82
2023-11-09T06:55:35.455Z,17.78
2023-11-09T06:58:21.878Z,18.58
2023-11-09T07:01:08.785Z,18.14
2023-11-09T07:03:56.244Z,17.76
2023-11-09T07:06:45.062Z,17.91
2023-11-09T07:09:32.684Z,17.40
2023-11-09T07:12:20.231Z,17.38
2023-11-09T07:15:08.893Z,17.51
2023-11-09T07:17:55.562Z,17.66
2023-11-09T07:20:42.899Z,18.10
2023-11-09T07:23:30.160Z,18.10
2023-11-09T07:26:18.907Z,18.46
2023-11-09T07:29:05.473Z,17.63
2023-11-09T07:31:53.109Z,18.07
2023-11-09T07:34:39.866Z,18.04
2023-11-09T07:37:28.363Z,17.41
2023-11-09T07:40:15.101Z,17.69
2023-11-09T07:43:05.187Z,17.95
2023-11-09T07:45:51.964Z,17.79
2023-11-09T07:48:38.626Z,18.30
2023-11-09T07:51:25.220Z,17.53
2023-11-09T07:54:11.695Z,18.25
2023-11-09T07:57:00.126Z,18.23
2023-11-09T07:59:47.676Z,18.50
2023-11-09T08:02:34.080Z,18.04
2023-11-09T08:05:20.621Z,17.79
2023-11-09T08:08:07.062Z,17.38
2023-11-09T08:10:54.841Z,17.66
2023-11-09T08:13:41.117Z,18.03
2023-11-09T08:16:28.684Z,17.44
2023-11-09T08:19:15.465Z,17.82
2023-11-09T08:22:02.256Z,18.36
2023-11-09T08:24:48.547Z,18.84
2023-11-09T08:27:35.048Z,19.20
2023-11-09T08:30:27.912Z,19.10
2023-11-09T08:33:22.843Z,17.83
2023-11-09T08:36:11.756Z,17.47
2023-11-09T08:38:58.605Z,17.81
2023-11-09T08:41:45.064Z,17.72
2023-11-09T08:44:34.651Z,16.92
2023-11-09T08:47:22.829Z,17.42
2023-11-09T08:50:11.357Z,17.09
2023-11-09T08:52:59.858Z,17.02
2023-11-09T08:55:47.169Z,17.74
2023-11-09T08:58:37.663Z,17.67
2023-11-09T09:01:24.052Z,18.10
2023-11-09T09:04:10.390Z,17.15
2023-11-09T09:06:58.140Z,18.11
2023-11-09T09:09:47.015Z,17.12
2023-11-09T09:12:34.310Z,17.96
2023-11-09T09:15:21.450Z,17.06
2023-11-09T09:18:10.759Z,18.04
2023-11-09T09:20:57.310Z,17.78
2023-11-09T09:23:45.154Z,17.48
2023-11-09T09:26:34.361Z,17.90
2023-11-09T09:29:20.934Z,17.41
2023-11-09T09:32:09.274Z,17.24
2023-11-09T09:34:55.758Z,18.45
2023-11-09T09:37:43.641Z,18.06
2023-11-09T09:40:40.586Z,17.63
2023-11-09T09:43:39.771Z,17.76
2023-11-09T09:46:27.374Z,16.94
2023-11-09T09:49:15.578Z,18.01
2023-11-09T09:52:02.273Z,18.73
2023-11-09T09:54:48.508Z,17.60
2023-11-09T09:57:37.122Z,18.36
2023-11-09T10:00:28.010Z,16.82
2023-11-09T10:03:14.733Z,17.32
2023-11-09T10:06:01.301Z,17.33
2023-11-09T10:08:47.769Z,17.92
2023-11-09T10:11:35.330Z,18.24
2023-11-09T10:14:33.942Z,17.52
2023-11-09T10:17:23.058Z,18.16
2023-11-09T10:20:15.791Z,17.26
2023-11-09T10:23:06.085Z,17.56
2023-11-09T10:25:53.925Z,17.66
2023-11-09T10:28:40.495Z,18.19
2023-11-09T10:31:32.288Z,18.11
2023-11-09T10:34:18.812Z,18.39
2023-11-09T10:37:06.179Z,17.91
2023-11-09T10:39:54.211Z,17.64
2023-11-09T10:42:47.205Z,17.07
2023-11-09T10:45:40.468Z,17.69
2023-11-09T10:48:33.262Z,17.83
2023-11-09T10:51:20.926Z,16.98
2023-11-09T10:54:10.004Z,17.23
2023-11-09T10:56:57.665Z,18.36
2023-11-09T10:59:44.145Z,17.76
2023-11-09T11:02:33.656Z,17.92
2023-11-09T11:05:25.877Z,17.47
2023-11-09T11:08:16.534Z,18.43
2023-11-09T11:11:06.261Z,18.00
2023-11-09T11:14:00.832Z,18.19
2023-11-09T11:17:08.847Z,18.26
2023-11-09T11:20:19.376Z,17.33
2023-11-09T11:23:43.277Z,17.30
2023-11-09T11:26:53.203Z,17.93
2023-11-09T11:29:45.707Z,19.16
2023-11-09T11:32:39.237Z,19.16
2023-11-09T11:35:35.106Z,18.98
2023-11-09T11:38:27.801Z,19.04
2023-11-09T11:41:19.193Z,18.45
2023-11-09T11:44:07.078Z,19.00
2023-11-09T11:46:53.471Z,18.93
2023-11-09T11:49:39.978Z,18.45
2023-11-09T11:52:26.531Z,18.64
2023-11-09T11:55:19.462Z,17.97
2023-11-09T11:58:07.542Z,19.64
2023-11-09T12:00:53.816Z,20.00
2023-11-09T12:03:42.398Z,19.10
2023-11-09T12:06:30.841Z,19.18
2023-11-09T12:09:19.575Z,19.95
2023-11-09T12:12:13.252Z,20.00
2023-11-09T12:15:01.484Z,18.90
2023-11-09T12:17:47.926Z,18.63
2023-11-09T12:20:34.636Z,19.41
2023-11-09T12:23:24.591Z,19.13
2023-11-09T12:26:10.974Z,18.82
2023-11-09T12:28:59.516Z,19.87
2023-11-09T12:31:45.917Z,20.26
2023-11-09T12:34:36.415Z,19.33
2023-11-09T12:37:27.216Z,18.73
2023-11-09T12:40:14.141Z,19.55
2023-11-09T12:43:01.278Z,19.05
2023-11-09T12:48:50.365Z,19.36
2023-11-09T12:51:39.916Z,18.67
2023-11-09T12:54:26.538Z,18.68
2023-11-09T12:57:18.187Z,18.41
2023-11-09T13:00:06.568Z,19.37
2023-11-09T13:02:57.777Z,18.45
2023-11-09T13:05:45.965Z,19.76
2023-11-09T13:08:32.233Z,18.12
2023-11-09T13:11:24.062Z,18.86
2023-11-09T13:14:17.397Z,19.18
2023-11-09T13:17:05.213Z,18.89
2023-11-09T13:19:52.275Z,19.00
2023-11-09T13:22:42.317Z,17.89
2023-11-09T13:25:29.983Z,18.43
2023-11-09T13:28:18.992Z,17.14
2023-11-09T13:31:15.627Z,18.22
2023-11-09T13:34:04.079Z,18.86
2023-11-09T13:36:58.578Z,19.43
2023-11-09T13:39:52.101Z,18.78
2023-11-09T13:42:38.951Z,18.31
2023-11-09T13:45:35.535Z,18.92
2023-11-09T13:48:24.887Z,18.86
2023-11-09T13:51:15.846Z,18.29
2023-11-09T13:54:23.982Z,18.90
2023-11-09T13:57:20.287Z,19.30
2023-11-09T14:00:13.554Z,18.86
2023-11-09T14:03:00.086Z,18.81
2023-11-09T14:05:48.350Z,19.30
2023-11-09T14:08:39.392Z,19.15
2023-11-09T14:11:27.458Z,18.76
2023-11-09T14:14:16.911Z,20.68
2023-11-09T14:17:07.991Z,19.38
2023-11-09T14:19:55.971Z,18.60
2023-11-09T14:22:43.006Z,18.30
2023-11-09T14:25:29.540Z,18.09
2023-11-09T14:28:15.921Z,18.44
2023-11-09T14:31:09.157Z,17.79
2023-11-09T14:33:56.649Z,18.36
2023-11-09T14:36:48.498Z,19.18
2023-11-09T14:39:38.124Z,18.82
2023-11-09T14:42:25.804Z,19.49
2023-11-09T14:45:16.677Z,19.66
2023-11-09T14:48:04.598Z,18.43
2023-11-09T14:50:51.925Z,18.35
2023-11-09T14:53:39.623Z,18.16
2023-11-09T14:56:26.552Z,18.71
2023-11-09T14:59:15.180Z,19.27
2023-11-09T15:02:01.559Z,19.20
2023-11-09T15:04:54.586Z,18.95
2023-11-09T15:07:42.543Z,19.67
2023-11-09T15:10:28.805Z,19.29
2023-11-09T15:13:15.371Z,19.20
2023-11-09T15:16:04.656Z,18.14
2023-11-09T15:18:52.017Z,18.66
2023-11-09T15:21:44.013Z,17.60
2023-11-09T15:24:32.061Z,17.41
2023-11-09T15:27:20.059Z,17.76
2023-11-09T15:30:09.600Z,18.34
2023-11-09T15:32:55.932Z,18.01
2023-11-09T15:35:45.602Z,17.57
2023-11-09T15:38:33.802Z,18.51
2023-11-09T15:41:22.574Z,17.30
2023-11-09T15:44:13.857Z,18.45
2023-11-09T15:47:03.660Z,17.79
2023-11-09T15:49:51.541Z,18.87
2023-11-09T15:52:37.988Z,17.16
2023-11-09T15:55:26.036Z,18.75
2023-11-09T15:58:12.461Z,17.79
2023-11-09T16:01:02.283Z,18.53
2023-11-09T16:03:50.532Z,17.90
2023-11-09T16:06:37.162Z,18.43
2023-11-09T16:09:28.664Z,16.92
2023-11-09T16:12:40.143Z,16.08
2023-11-09T16:15:31.077Z,15.98
2023-11-09T16:18:19.851Z,16.10
2023-11-09T16:21:13.048Z,15.13
2023-11-09T16:24:09.793Z,15.12
2023-11-09T16:27:00.895Z,15.06
2023-11-09T16:29:55.888Z,15.64
2023-11-09T16:32:43.614Z,15.63
2023-11-09T16:35:31.475Z,14.92
2023-11-09T16:38:18.309Z,14.78
2023-11-09T16:41:09.775Z,15.95
2023-11-09T16:43:56.147Z,15.23
2023-11-09T16:46:44.569Z,15.20
2023-11-09T16:49:31.426Z,15.11
2023-11-09T16:52:17.687Z,15.15
2023-11-09T16:55:07.359Z,15.59
2023-11-09T16:57:54.107Z,15.57
2023-11-09T17:00:40.537Z,15.59
2023-11-09T17:03:28.452Z,15.00
2023-11-09T17:06:14.942Z,15.29
2023-11-09T17:09:01.450Z,14.67
2023-11-09T17:11:47.950Z,14.76
2023-11-09T17:14:34.634Z,15.47
2023-11-09T17:17:20.938Z,15.41
2023-11-09T17:20:10.732Z,15.49
2023-11-09T17:22:58.505Z,16.09
2023-11-09T17:25:45.081Z,15.88
2023-11-09T17:28:32.652Z,15.95
2023-11-09T17:31:19.312Z,15.58
2023-11-09T17:34:05.847Z,15.82
2023-11-09T17:36:54.547Z,16.13
2023-11-09T17:39:42.486Z,16.09
2023-11-09T17:42:29.033Z,16.21
2023-11-09T17:45:16.569Z,15.26
2023-11-09T17:48:03.202Z,15.97
2023-11-09T17:50:51.233Z,14.95
2023-11-09T17:53:39.037Z,15.47
2023-11-09T17:56:26.679Z,16.12
2023-11-09T17:59:13.114Z,15.58
2023-11-09T18:02:01.535Z,16.63
2023-11-09T18:04:48.174Z,16.72
2023-11-09T18:07:34.585Z,16.04
2023-11-09T18:10:22.441Z,15.37
2023-11-09T18:13:08.943Z,15.46
2023-11-09T18:15:55.325Z,15.95
2023-11-09T18:18:41.699Z,15.71
2023-11-09T18:21:34.246Z,15.98
2023-11-09T18:24:21.697Z,17.09
2023-11-09T18:27:09.621Z,16.16
2023-11-09T18:29:55.806Z,16.67
2023-11-09T18:32:47.809Z,16.76
2023-11-09T18:35:34.177Z,17.06
2023-11-09T18:38:20.822Z,16.15
2023-11-09T18:41:08.087Z,16.25
2023-11-09T18:43:56.587Z,16.78
2023-11-09T18:46:43.911Z,16.10
2023-11-09T18:52:19.953Z,15.81
2023-11-09T18:55:07.401Z,16.34
2023-11-09T18:57:55.317Z,16.23
2023-11-09T19:00:44.182Z,16.80
2023-11-09T19:06:19.842Z,15.90
2023-11-09T19:09:07.031Z,16.50
2023-11-09T19:11:53.660Z,16.64
2023-11-09T19:14:39.999Z,16.07
2023-11-09T19:17:27.917Z,15.94
2023-11-09T19:20:14.796Z,15.06
2023-11-09T19:23:01.372Z,16.31
2023-11-09T19:25:48.029Z,16.64
2023-11-09T19:28:34.719Z,16.49
2023-11-09T19:31:23.811Z,15.83
2023-11-09T19:34:11.764Z,15.33
2023-11-09T19:36:58.136Z,15.03
2023-11-09T19:39:44.674Z,15.69
2023-11-09T19:42:32.495Z,14.95
2023-11-09T19:45:25.067Z,15.78
2023-11-09T19:48:12.725Z,14.56
2023-11-09T19:51:04.445Z,15.03
2023-11-09T19:53:50.797Z,14.13
2023-11-09T19:56:37.354Z,14.83
2023-11-09T19:59:24.265Z,15.83
2023-11-09T20:02:10.463Z,15.75
2023-11-09T20:04:57.776Z,15.68
2023-11-09T20:07:46.066Z,15.33
2023-11-09T20:10:32.832Z,15.39
2023-11-09T20:13:21.830Z,15.00
2023-11-09T20:16:08.992Z,15.03
2023-11-09T20:18:55.488Z,15.04
2023-11-09T20:21:42.139Z,14.89
2023-11-09T20:24:33.066Z,14.50
2023-11-09T20:27:19.473Z,14.87
2023-11-09T20:30:07.051Z,14.32
2023-11-09T20:32:54.306Z,14.96
2023-11-09T20:35:42.385Z,15.72
2023-11-09T20:38:29.150Z,14.65
2023-11-09T20:41:17.038Z,15.20
2023-11-09T20:44:04.288Z,15.13
2023-11-09T20:46:51.759Z,14.78
2023-11-09T20:49:38.409Z,15.03
2023-11-09T20:52:24.853Z,14.38
2023-11-09T20:55:18.028Z,14.45
2023-11-09T20:58:06.299Z,14.56
2023-11-09T21:00:54.916Z,14.70
2023-11-09T21:03:44.225Z,14.81
2023-11-09T21:06:30.824Z,14.21
2023-11-09T21:09:18.336Z,14.73
2023-11-09T21:12:05.866Z,15.36
2023-11-09T21:14:53.662Z,15.27
2023-11-09T21:17:42.512Z,14.44
2023-11-09T21:20:29.259Z,15.13
2023-11-09T21:23:15.581Z,15.03
2023-11-09T21:26:02.936Z,15.37
2023-11-09T21:28:51.685Z,15.05
2023-11-09T21:31:39.418Z,14.45
2023-11-09T21:34:25.984Z,14.05
2023-11-09T21:37:14.861Z,14.40
2023-11-09T21:40:05.530Z,13.66
2023-11-09T21:42:52.052Z,13.77
2023-11-09T21:45:38.601Z,14.05
2023-11-09T21:48:26.489Z,14.56
2023-11-09T21:51:12.928Z,14.81
2023-11-09T21:53:59.403Z,14.04
2023-11-09T21:56:46.437Z,14.93
2023-11-09T21:59:36.148Z,14.46
2023-11-09T22:02:22.544Z,15.01
2023-11-09T22:05:10.621Z,13.84
2023-11-09T22:07:56.633Z,14.51
2023-11-09T22:10:43.508Z,13.75
2023-11-09T22:13:30.073Z,14.93
2023-11-09T22:16:16.447Z,15.05
2023-11-09T22:19:03.644Z,15.49
2023-11-09T22:21:52.080Z,15.20
2023-11-09T22:24:38.637Z,14.30
2023-11-09T22:27:24.937Z,13.58
2023-11-09T22:30:12.129Z,13.90
2023-11-09T22:32:58.748Z,13.96
2023-11-09T22:35:45.019Z,14.65
2023-11-09T22:38:32.617Z,14.46
2023-11-09T22:41:19.210Z,14.70
2023-11-09T22:44:05.723Z,13.62
2023-11-09T22:46:52.015Z,13.60
2023-11-09T22:49:38.577Z,13.32
2023-11-09T22:52:25.144Z,13.60
2023-11-09T22:55:13.498Z,14.06
2023-11-09T22:57:59.794Z,14.49
2023-11-09T23:00:52.172Z,13.61
2023-11-09T23:03:38.478Z,13.62
2023-11-09T23:06:25.461Z,14.58
2023-11-09T23:09:13.154Z,14.02
2023-11-09T23:12:00.909Z,13.21
2023-11-09T23:14:47.389Z,13.93
2023-11-09T23:17:34.291Z,14.32
2023-11-09T23:20:20.764Z,14.31
2023-11-09T23:23:07.132Z,14.70
2023-11-09T23:25:53.626Z,14.61
2023-11-09T23:28:41.806Z,13.48
2023-11-09T23:31:28.042Z,13.64
2023-11-09T23:34:14.364Z,14.23
2023-11-09T23:37:00.879Z,14.28
2023-11-09T23:39:47.940Z,14.35
2023-11-09T23:42:34.611Z,14.04
2023-11-09T23:45:22.375Z,13.84
2023-11-09T23:48:12.624Z,13.77
2023-11-09T23:50:59.806Z,14.64
2023-11-09T23:53:46.551Z,14.38
2023-11-09T23:56:33.241Z,15.15
2023-11-09T23:59:19.622Z,14.41
